LEVD/VLL METAR and TAF weather

Enter ICAO airport designator
Station Type Date Time Source
LEVD METAR 2021/05/13 06:30 UTC NOAA

LEVD 130630Z 25011KT 9999 FEW028 07/05 Q1018


Station Type Date Time Source
LEVD Decoded METAR 2021/05/13 06:30 UTC NOAA

Valladolid / Villanubla, Spain (LEVD) 41-43N 004-51W 846M
May 13, 2021 - 02:30 AM EDT / 2021.05.13 0630 UTC
Wind: from the WSW (250 degrees) at 13 MPH (11 KT):0
Visibility: greater than 7 mile(s):0
Sky conditions: mostly clear
Temperature: 44 F (7 C)
Dew Point: 41 F (5 C)
Relative Humidity: 87%
Pressure (altimeter): 30.06 in. Hg (1018 hPa)
ob: LEVD 130630Z 25011KT 9999 FEW028 07/05 Q1018
cycle: 6

Station Type Date Time Source
LEVD TAF 2021/05/13 03:30 UTC NOAA

TAF LEVD 130200Z 1303/1403 25007KT CAVOK TX18/1315Z TN04/1305Z
TEMPO 1313/1320 24015G33KT PROB40
TEMPO 1312/1321 3000 RA BKN008

Example: see airport list